createdAt,value
2018-08-16T00:00:14.563Z,5.83
2018-08-16T00:02:43.893Z,6.07
2018-08-16T00:05:13.101Z,5.60
2018-08-16T00:07:42.140Z,6.03
2018-08-16T00:10:13.420Z,5.47
2018-08-16T00:12:43.653Z,5.23
2018-08-16T00:15:12.998Z,5.40
2018-08-16T00:17:42.315Z,5.87
2018-08-16T00:20:11.776Z,5.27
2018-08-16T00:22:40.856Z,5.60
2018-08-16T00:25:10.668Z,4.90
2018-08-16T00:27:39.817Z,5.43
2018-08-16T00:30:15.391Z,5.33
2018-08-16T00:32:44.765Z,5.20
2018-08-16T00:35:13.860Z,5.17
2018-08-16T00:37:43.203Z,5.20
2018-08-16T00:40:14.940Z,5.93
2018-08-16T00:42:44.060Z,6.03
2018-08-16T00:45:13.428Z,5.73
2018-08-16T00:47:42.559Z,5.93
2018-08-16T00:50:14.139Z,6.07
2018-08-16T00:52:43.540Z,5.57
2018-08-16T00:55:13.689Z,5.57
2018-08-16T00:57:42.749Z,6.20
2018-08-16T01:00:14.964Z,6.33
2018-08-16T01:02:44.272Z,5.43
2018-08-16T01:05:14.352Z,6.00
2018-08-16T01:07:43.425Z,5.97
2018-08-16T01:10:14.683Z,6.23
2018-08-16T01:12:44.476Z,5.97
2018-08-16T01:15:15.530Z,6.30
2018-08-16T01:17:44.543Z,6.20
2018-08-16T01:20:13.727Z,5.90
2018-08-16T01:22:42.720Z,5.87
2018-08-16T01:25:12.398Z,5.63
2018-08-16T01:27:41.460Z,6.57
2018-08-16T01:30:11.033Z,5.30
2018-08-16T01:32:40.262Z,5.60
2018-08-16T01:35:10.265Z,5.50
2018-08-16T01:37:39.565Z,5.17
2018-08-16T01:40:09.132Z,5.70
2018-08-16T01:42:39.442Z,5.73
2018-08-16T01:45:09.322Z,5.87
2018-08-16T01:47:38.523Z,5.80
2018-08-16T01:50:08.209Z,6.03
2018-08-16T01:52:37.430Z,6.03
2018-08-16T01:55:07.069Z,5.90
2018-08-16T01:57:36.119Z,6.27
2018-08-16T02:00:08.382Z,5.70
2018-08-16T02:02:37.593Z,5.80
2018-08-16T02:05:06.801Z,6.23
2018-08-16T02:07:35.835Z,5.93
2018-08-16T02:10:05.950Z,5.70
2018-08-16T02:12:35.097Z,5.70
2018-08-16T02:15:04.770Z,5.87
2018-08-16T02:17:34.042Z,5.43
2018-08-16T02:20:03.136Z,6.10
2018-08-16T02:22:32.159Z,5.40
2018-08-16T02:25:01.203Z,5.60
2018-08-16T02:27:30.355Z,5.73
2018-08-16T02:29:59.391Z,5.53
2018-08-16T02:32:28.417Z,5.97
2018-08-16T02:34:57.477Z,5.73
2018-08-16T02:37:26.505Z,5.80
2018-08-16T02:39:55.869Z,6.33
2018-08-16T02:42:24.942Z,5.83
2018-08-16T02:44:53.989Z,6.13
2018-08-16T02:47:23.087Z,6.67
2018-08-16T02:49:52.077Z,6.40
2018-08-16T02:52:21.128Z,6.50
2018-08-16T02:54:50.146Z,6.67
2018-08-16T02:57:19.246Z,6.17
2018-08-16T02:59:48.259Z,6.70
2018-08-16T03:02:17.265Z,7.17
2018-08-16T03:04:46.285Z,6.90
2018-08-16T03:07:15.289Z,6.73
2018-08-16T03:09:44.338Z,6.60
2018-08-16T03:12:13.424Z,6.70
2018-08-16T03:14:42.545Z,6.70
2018-08-16T03:17:11.651Z,7.10
2018-08-16T03:19:40.869Z,6.03
2018-08-16T03:22:09.955Z,6.30
2018-08-16T03:24:39.089Z,6.73
2018-08-16T03:27:08.331Z,7.13
2018-08-16T03:29:37.477Z,6.63
2018-08-16T03:32:06.680Z,6.70
2018-08-16T03:34:35.728Z,6.83
2018-08-16T03:37:04.838Z,6.37
2018-08-16T03:39:33.845Z,6.10
2018-08-16T03:42:02.939Z,6.13
2018-08-16T03:44:31.950Z,5.93
2018-08-16T03:47:01.253Z,5.90
2018-08-16T03:49:30.260Z,6.20
2018-08-16T03:51:59.318Z,6.37
2018-08-16T03:54:28.482Z,5.67
2018-08-16T03:56:57.494Z,5.47
2018-08-16T03:59:26.568Z,5.93
2018-08-16T04:01:55.604Z,5.07
2018-08-16T04:04:24.670Z,5.60
2018-08-16T04:06:54.009Z,5.60
2018-08-16T04:09:23.054Z,5.53
2018-08-16T04:11:52.069Z,6.10
2018-08-16T04:14:21.098Z,5.80
2018-08-16T04:16:50.085Z,5.90
2018-08-16T04:19:19.127Z,6.60
2018-08-16T04:21:48.222Z,6.93
2018-08-16T04:24:17.205Z,5.90
2018-08-16T04:26:46.231Z,5.60
2018-08-16T04:29:15.308Z,5.87
2018-08-16T04:31:44.320Z,5.87
2018-08-16T04:34:13.627Z,5.70
2018-08-16T04:36:42.706Z,6.47
2018-08-16T04:39:11.772Z,5.70
2018-08-16T04:41:40.942Z,6.37
2018-08-16T04:44:09.993Z,5.93
2018-08-16T04:46:39.169Z,6.27
2018-08-16T04:49:08.313Z,5.83
2018-08-16T04:51:37.395Z,6.17
2018-08-16T04:54:06.481Z,5.77
2018-08-16T04:56:35.626Z,5.97
2018-08-16T04:59:04.725Z,5.80
2018-08-16T05:01:33.736Z,5.40
2018-08-16T05:04:02.761Z,5.57
2018-08-16T05:06:31.765Z,5.97
2018-08-16T05:09:00.786Z,5.80
2018-08-16T05:11:29.832Z,5.40
2018-08-16T05:13:58.862Z,5.50
2018-08-16T05:16:27.875Z,5.97
2018-08-16T05:18:56.906Z,6.00
2018-08-16T05:21:26.102Z,6.20
2018-08-16T05:23:55.211Z,6.00
2018-08-16T05:26:24.313Z,5.63
2018-08-16T05:28:53.378Z,6.40
2018-08-16T05:31:22.534Z,6.20
2018-08-16T05:33:51.563Z,6.07
2018-08-16T05:36:20.641Z,6.37
2018-08-16T05:38:49.676Z,6.40
2018-08-16T05:41:18.920Z,7.20
2018-08-16T05:43:47.957Z,6.17
2018-08-16T05:46:17.093Z,6.03
2018-08-16T05:48:46.314Z,6.20
2018-08-16T05:51:15.360Z,6.50
2018-08-16T05:53:44.374Z,6.20
2018-08-16T05:56:13.480Z,6.10
2018-08-16T05:58:42.577Z,6.40
2018-08-16T06:01:11.689Z,7.03
2018-08-16T06:03:40.741Z,6.47
2018-08-16T06:06:09.898Z,6.07
2018-08-16T06:08:38.991Z,6.57
2018-08-16T06:11:08.148Z,5.93
2018-08-16T06:13:37.189Z,5.50
2018-08-16T06:16:06.486Z,4.77
2018-08-16T06:18:35.582Z,5.03
2018-08-16T06:21:04.767Z,5.05
2018-08-16T06:23:33.769Z,4.75
2018-08-16T06:26:02.863Z,4.22
2018-08-16T06:28:32.237Z,4.42
2018-08-16T06:31:01.327Z,4.92
2018-08-16T06:33:30.398Z,4.83
2018-08-16T06:35:59.446Z,4.80
2018-08-16T06:38:28.432Z,5.85
2018-08-16T06:40:57.662Z,5.00
2018-08-16T06:43:26.761Z,5.37
2018-08-16T06:45:55.823Z,5.08
2018-08-16T06:48:24.933Z,5.17
2018-08-16T06:50:53.991Z,5.55
2018-08-16T06:53:23.088Z,5.33
2018-08-16T06:55:52.408Z,5.15
2018-08-16T06:58:21.461Z,6.20
2018-08-16T07:00:50.474Z,5.67
2018-08-16T07:03:19.541Z,5.47
2018-08-16T07:05:48.591Z,5.70
2018-08-16T07:08:17.589Z,6.10
2018-08-16T07:10:46.655Z,5.22
2018-08-16T07:13:15.717Z,5.37
2018-08-16T07:15:44.746Z,6.20
2018-08-16T07:18:13.793Z,6.03
2018-08-16T07:20:42.910Z,6.00
2018-08-16T07:23:11.974Z,5.62
2018-08-16T07:25:41.050Z,5.75
2018-08-16T07:28:10.117Z,5.30
2018-08-16T07:30:39.219Z,5.78
2018-08-16T07:33:08.449Z,5.87
2018-08-16T07:35:37.688Z,6.10
2018-08-16T07:38:06.814Z,5.75
2018-08-16T07:40:35.915Z,5.25
2018-08-16T07:43:04.933Z,4.70
2018-08-16T07:45:34.071Z,5.42
2018-08-16T07:48:03.154Z,4.67
2018-08-16T07:50:32.464Z,4.53
2018-08-16T07:53:01.487Z,4.85
2018-08-16T07:55:30.554Z,5.12
2018-08-16T07:57:59.578Z,5.15
2018-08-16T08:00:28.634Z,5.05
2018-08-16T08:02:57.789Z,5.10
2018-08-16T08:05:26.863Z,5.25
2018-08-16T08:07:55.958Z,5.25
2018-08-16T08:10:25.079Z,5.03
2018-08-16T08:12:54.171Z,4.30
2018-08-16T08:15:23.290Z,4.35
2018-08-16T08:17:52.351Z,4.62
2018-08-16T08:20:21.456Z,5.42
2018-08-16T08:22:50.593Z,4.17
2018-08-16T08:25:19.745Z,4.75
2018-08-16T08:27:48.721Z,4.42
2018-08-16T08:30:17.813Z,4.45
2018-08-16T08:32:46.811Z,4.80
2018-08-16T08:35:15.860Z,4.85
2018-08-16T08:38:01.456Z,4.42
2018-08-16T08:40:30.587Z,4.47
2018-08-16T08:42:59.638Z,4.30
2018-08-16T08:45:28.686Z,4.58
2018-08-16T08:47:58.500Z,5.05
2018-08-16T08:50:27.728Z,4.78
2018-08-16T08:53:09.546Z,4.92
2018-08-16T08:55:49.790Z,4.95
2018-08-16T08:58:29.913Z,4.92
2018-08-16T09:00:58.918Z,5.00
2018-08-16T09:03:27.936Z,5.05
2018-08-16T09:05:56.973Z,4.70
2018-08-16T09:08:25.998Z,5.03
2018-08-16T09:11:22.640Z,5.25
2018-08-16T09:14:07.030Z,5.17
2018-08-16T09:16:38.162Z,4.53
2018-08-16T09:19:08.011Z,5.25
2018-08-16T09:21:37.373Z,5.30
2018-08-16T09:24:06.779Z,5.15
2018-08-16T09:26:38.788Z,5.05
2018-08-16T09:31:22.392Z,4.80
2018-08-16T09:34:02.545Z,4.67
2018-08-16T09:36:31.589Z,5.00
2018-08-16T09:39:00.711Z,4.55
2018-08-16T09:41:30.145Z,4.55
2018-08-16T09:43:59.178Z,4.58
2018-08-16T09:46:54.402Z,4.72
2018-08-16T09:49:23.506Z,5.53
2018-08-16T09:51:52.720Z,6.10
2018-08-16T09:54:21.918Z,5.30
2018-08-16T09:56:51.591Z,4.67
2018-08-16T09:59:21.619Z,4.42
2018-08-16T10:01:51.792Z,4.45
2018-08-16T10:04:21.499Z,4.08
2018-08-16T10:06:51.310Z,4.40
2018-08-16T10:09:36.584Z,5.50
2018-08-16T10:12:09.540Z,6.00
2018-08-16T10:15:06.936Z,4.47
2018-08-16T10:17:38.617Z,4.70
2018-08-16T10:20:07.947Z,4.70
2018-08-16T10:22:37.131Z,4.72
2018-08-16T10:25:06.465Z,5.08
2018-08-16T10:27:35.497Z,5.03
2018-08-16T10:30:05.272Z,5.50
2018-08-16T10:32:34.298Z,5.95
2018-08-16T10:35:03.477Z,5.30
2018-08-16T10:37:32.761Z,5.87
2018-08-16T10:40:07.232Z,5.72
2018-08-16T10:42:37.358Z,5.37
2018-08-16T10:45:07.259Z,6.05
2018-08-16T10:47:38.471Z,5.87
2018-08-16T10:50:08.087Z,4.90
2018-08-16T10:52:38.902Z,4.83
2018-08-16T10:55:08.342Z,5.37
2018-08-16T10:57:38.286Z,5.05
2018-08-16T11:00:08.434Z,5.30
2018-08-16T11:02:37.571Z,5.30
2018-08-16T11:05:06.862Z,5.25
2018-08-16T11:07:35.954Z,5.33
2018-08-16T11:10:07.644Z,5.90
2018-08-16T11:12:37.639Z,4.87
2018-08-16T11:15:07.386Z,5.15
2018-08-16T11:17:37.149Z,5.10
2018-08-16T11:20:07.343Z,4.95
2018-08-16T11:22:39.335Z,4.78
2018-08-16T11:25:08.432Z,5.00
2018-08-16T11:27:40.331Z,4.50
2018-08-16T11:30:09.398Z,4.62
2018-08-16T11:32:38.498Z,4.83
2018-08-16T11:35:09.846Z,4.62
2018-08-16T11:37:39.471Z,4.58
2018-08-16T11:40:09.206Z,5.42
2018-08-16T11:42:38.282Z,4.75
2018-08-16T11:45:07.903Z,4.62
2018-08-16T11:47:38.473Z,4.58
2018-08-16T11:50:08.204Z,4.78
2018-08-16T11:52:38.801Z,5.12
2018-08-16T11:55:07.901Z,4.60
2018-08-16T11:57:36.984Z,4.87
2018-08-16T12:00:06.261Z,4.67
2018-08-16T12:02:37.914Z,4.58
2018-08-16T12:05:07.057Z,4.40
2018-08-16T12:07:37.335Z,4.70
2018-08-16T12:10:07.170Z,4.22
2018-08-16T12:12:37.771Z,4.60
2018-08-16T12:15:07.754Z,4.83
2018-08-16T12:17:36.847Z,4.62
2018-08-16T12:20:06.964Z,4.20
2018-08-16T12:22:36.048Z,4.17
2018-08-16T12:25:06.584Z,4.40
2018-08-16T12:27:35.705Z,4.53
2018-08-16T12:30:06.199Z,4.40
2018-08-16T12:32:35.245Z,4.90
2018-08-16T12:35:05.094Z,4.33
2018-08-16T12:37:35.913Z,3.95
2018-08-16T12:40:06.262Z,4.47
2018-08-16T12:42:35.332Z,4.50
2018-08-16T12:45:06.629Z,4.47
2018-08-16T12:47:35.655Z,4.78
2018-08-16T12:50:05.719Z,4.45
2018-08-16T12:52:34.978Z,4.25
2018-08-16T12:55:04.113Z,4.67
2018-08-16T12:57:33.358Z,4.60
2018-08-16T13:00:02.471Z,4.40
2018-08-16T13:02:31.473Z,4.12
2018-08-16T13:05:00.512Z,4.45
2018-08-16T13:07:29.639Z,4.10
2018-08-16T13:09:58.653Z,4.42
2018-08-16T13:12:27.682Z,4.78
2018-08-16T13:14:56.788Z,4.83
2018-08-16T13:17:25.830Z,4.33
2018-08-16T13:19:57.006Z,4.45
2018-08-16T13:22:26.108Z,5.08
2018-08-16T13:24:55.194Z,4.80
2018-08-16T13:27:24.300Z,4.50
2018-08-16T13:29:53.723Z,4.15
2018-08-16T13:32:22.764Z,4.62
2018-08-16T13:34:51.773Z,4.47
2018-08-16T13:37:20.778Z,4.17
2018-08-16T13:39:49.820Z,4.22
2018-08-16T13:42:18.977Z,4.33
2018-08-16T13:44:47.945Z,4.42
2018-08-16T13:47:16.991Z,5.05
2018-08-16T13:49:46.028Z,4.00
2018-08-16T13:52:16.482Z,4.33
2018-08-16T13:54:46.071Z,4.42
2018-08-16T13:57:16.921Z,4.65
2018-08-16T13:59:46.016Z,4.80
2018-08-16T14:02:15.038Z,4.80
2018-08-16T14:04:44.105Z,4.55
2018-08-16T14:07:13.169Z,4.72
2018-08-16T14:09:43.921Z,4.35
2018-08-16T14:12:12.977Z,5.40
2018-08-16T14:14:42.363Z,4.55
2018-08-16T14:17:11.406Z,4.80
2018-08-16T14:19:40.478Z,4.15
2018-08-16T14:22:09.618Z,4.70
2018-08-16T14:24:40.032Z,4.47
2018-08-16T14:27:09.453Z,4.70
2018-08-16T14:29:38.595Z,5.00
2018-08-16T14:32:07.690Z,4.45
2018-08-16T14:34:36.754Z,4.50
2018-08-16T14:37:06.546Z,4.60
2018-08-16T14:39:37.290Z,4.62
2018-08-16T14:42:06.629Z,5.12
2018-08-16T14:44:35.636Z,5.10
2018-08-16T14:47:04.835Z,5.10
2018-08-16T14:49:33.862Z,4.70
2018-08-16T14:52:03.215Z,4.90
2018-08-16T14:54:32.263Z,4.90
2018-08-16T14:57:02.066Z,5.15
2018-08-16T14:59:31.096Z,4.90
2018-08-16T15:02:00.140Z,5.15
2018-08-16T15:04:29.181Z,5.87
2018-08-16T15:06:58.249Z,6.00
2018-08-16T15:09:27.288Z,4.75
2018-08-16T15:11:56.398Z,5.58
2018-08-16T15:14:25.419Z,4.67
2018-08-16T15:16:54.433Z,5.00
2018-08-16T15:19:23.454Z,5.60
2018-08-16T15:21:52.453Z,5.40
2018-08-16T15:24:21.912Z,4.80
2018-08-16T15:26:51.017Z,5.53
2018-08-16T15:29:20.569Z,4.47
2018-08-16T15:31:49.597Z,5.12
2018-08-16T15:34:20.473Z,5.33
2018-08-16T15:36:49.602Z,5.58
2018-08-16T15:39:18.583Z,5.35
2018-08-16T15:41:47.591Z,5.53
2018-08-16T15:44:16.622Z,5.08
2018-08-16T15:46:47.271Z,5.33
2018-08-16T15:49:16.318Z,5.20
2018-08-16T15:51:45.361Z,5.15
2018-08-16T15:54:14.404Z,4.67
2018-08-16T15:56:43.405Z,5.45
2018-08-16T15:59:14.342Z,5.20
2018-08-16T16:01:43.369Z,4.80
2018-08-16T16:04:12.389Z,5.03
2018-08-16T16:06:41.682Z,5.30
2018-08-16T16:09:11.302Z,4.97
2018-08-16T16:11:40.393Z,5.30
2018-08-16T16:14:09.826Z,5.75
2018-08-16T16:16:38.845Z,5.50
2018-08-16T16:19:09.593Z,5.53
2018-08-16T16:21:38.711Z,5.22
2018-08-16T16:24:07.841Z,5.60
2018-08-16T16:26:36.943Z,5.33
2018-08-16T16:29:06.082Z,5.50
2018-08-16T16:31:35.202Z,5.72
2018-08-16T16:34:04.377Z,5.28
2018-08-16T16:36:33.358Z,5.25
2018-08-16T16:39:02.420Z,5.30
2018-08-16T16:41:31.601Z,5.33
2018-08-16T16:44:00.616Z,5.70
2018-08-16T16:46:29.658Z,6.28
2018-08-16T16:48:58.722Z,6.28
2018-08-16T16:51:27.789Z,5.80
2018-08-16T16:53:56.866Z,6.03
2018-08-16T16:56:25.974Z,6.33
2018-08-16T16:58:55.001Z,6.17
2018-08-16T17:01:24.055Z,6.75
2018-08-16T17:03:53.131Z,5.85
2018-08-16T17:06:22.152Z,6.30
2018-08-16T17:08:51.222Z,6.90
2018-08-16T17:11:20.254Z,7.12
2018-08-16T17:13:49.285Z,6.58
2018-08-16T17:16:18.492Z,6.12
2018-08-16T17:18:47.496Z,6.95
2018-08-16T17:21:16.533Z,7.45
2018-08-16T17:23:45.582Z,6.87
2018-08-16T17:26:14.602Z,7.22
2018-08-16T17:28:43.643Z,7.10
2018-08-16T17:31:13.919Z,7.15
2018-08-16T17:33:42.990Z,7.90
2018-08-16T17:36:12.094Z,7.90
2018-08-16T17:38:41.194Z,8.08
2018-08-16T17:41:10.335Z,8.13
2018-08-16T17:43:39.453Z,8.50
2018-08-16T17:46:09.358Z,8.25
2018-08-16T17:48:40.233Z,8.50
2018-08-16T17:51:09.347Z,9.03
2018-08-16T17:53:38.382Z,8.75
2018-08-16T17:56:09.800Z,8.83
2018-08-16T17:58:38.872Z,8.53
2018-08-16T18:01:08.037Z,8.63
2018-08-16T18:03:37.096Z,9.05
2018-08-16T18:06:07.454Z,8.73
2018-08-16T18:08:38.470Z,9.33
2018-08-16T18:11:09.412Z,9.33
2018-08-16T18:13:38.482Z,9.93
2018-08-16T18:16:07.845Z,9.63
2018-08-16T18:18:37.135Z,8.78
2018-08-16T18:21:08.349Z,9.25
2018-08-16T18:23:38.689Z,9.75
2018-08-16T18:26:08.455Z,9.43
2018-08-16T18:28:37.489Z,9.10
2018-08-16T18:31:08.456Z,8.95
2018-08-16T18:33:37.480Z,8.85
2018-08-16T18:36:08.904Z,9.93
2018-08-16T18:38:38.190Z,10.08
2018-08-16T18:41:07.674Z,9.75
2018-08-16T18:43:36.689Z,9.88
2018-08-16T18:46:07.468Z,9.73
2018-08-16T18:48:36.506Z,9.23
2018-08-16T18:51:07.542Z,9.38
2018-08-16T18:53:36.668Z,9.70
2018-08-16T18:56:08.292Z,10.08
2018-08-16T18:58:37.412Z,9.85
2018-08-16T19:01:06.664Z,9.45
2018-08-16T19:03:35.819Z,9.88
2018-08-16T19:06:05.047Z,10.25
2018-08-16T19:08:37.015Z,10.40
2018-08-16T19:11:06.388Z,9.80
2018-08-16T19:13:35.393Z,10.50
2018-08-16T19:16:06.126Z,10.68
2018-08-16T19:18:35.268Z,10.87
2018-08-16T19:21:04.285Z,10.50
2018-08-16T19:23:33.409Z,10.53
2018-08-16T19:26:02.457Z,10.83
2018-08-16T19:28:31.581Z,11.13
2018-08-16T19:31:08.910Z,10.67
2018-08-16T19:33:38.577Z,11.03
2018-08-16T19:36:08.304Z,10.10
2018-08-16T19:38:37.332Z,9.67
2018-08-16T19:41:07.774Z,10.70
2018-08-16T19:43:38.842Z,10.97
2018-08-16T19:46:09.213Z,11.57
2018-08-16T19:48:38.755Z,10.30
2018-08-16T19:51:08.886Z,10.70
2018-08-16T19:53:38.049Z,10.80
2018-08-16T19:56:07.213Z,10.37
2018-08-16T19:58:37.067Z,10.30
2018-08-16T20:01:06.236Z,11.23
2018-08-16T20:03:35.206Z,10.60
2018-08-16T20:06:04.535Z,10.70
2018-08-16T20:08:33.562Z,10.57
2018-08-16T20:11:02.590Z,11.17
2018-08-16T20:13:31.634Z,10.05
2018-08-16T20:16:00.661Z,10.30
2018-08-16T20:18:30.053Z,10.43
2018-08-16T20:20:59.077Z,10.70
2018-08-16T20:23:28.082Z,11.60
2018-08-16T20:25:57.126Z,10.70
2018-08-16T20:28:26.192Z,11.07
2018-08-16T20:30:55.304Z,10.90
2018-08-16T20:33:24.364Z,10.43
2018-08-16T20:35:53.373Z,10.67
2018-08-16T20:38:22.470Z,10.50
2018-08-16T20:40:51.566Z,11.60
2018-08-16T20:43:20.628Z,10.43
2018-08-16T20:45:49.717Z,10.87
2018-08-16T20:48:18.988Z,11.67
2018-08-16T20:50:48.114Z,10.73
2018-08-16T20:53:17.190Z,11.33
2018-08-16T20:55:46.225Z,11.50
2018-08-16T20:58:15.353Z,12.27
2018-08-16T21:00:44.420Z,10.90
2018-08-16T21:03:13.446Z,11.87
2018-08-16T21:05:42.463Z,11.80
2018-08-16T21:08:11.477Z,11.70
2018-08-16T21:10:40.507Z,11.70
2018-08-16T21:13:09.552Z,11.53
2018-08-16T21:15:38.562Z,11.43
2018-08-16T21:18:07.703Z,11.50
2018-08-16T21:20:36.842Z,11.53
2018-08-16T21:23:06.113Z,11.27
2018-08-16T21:25:35.126Z,11.63
2018-08-16T21:28:04.187Z,11.50
2018-08-16T21:30:33.285Z,11.77
2018-08-16T21:33:02.341Z,13.17
2018-08-16T21:35:31.378Z,11.77
2018-08-16T21:38:00.399Z,12.23
2018-08-16T21:40:29.516Z,13.13
2018-08-16T21:42:58.477Z,12.70
2018-08-16T21:45:27.520Z,13.67
2018-08-16T21:47:56.575Z,12.80
2018-08-16T21:50:26.242Z,13.73
2018-08-16T21:52:55.326Z,12.87
2018-08-16T21:55:24.349Z,13.20
2018-08-16T21:57:53.377Z,13.73
2018-08-16T22:00:56.965Z,12.87
2018-08-16T22:03:27.961Z,14.83
2018-08-16T22:06:00.222Z,13.80
2018-08-16T22:08:42.982Z,13.13
2018-08-16T22:11:12.334Z,14.33
2018-08-16T22:13:41.601Z,14.53
2018-08-16T22:16:10.776Z,14.37
2018-08-16T22:18:40.149Z,15.40
2018-08-16T22:21:09.518Z,16.27
2018-08-16T22:23:39.096Z,14.83
2018-08-16T22:26:08.219Z,15.03
2018-08-16T22:28:37.935Z,15.20
2018-08-16T22:31:07.069Z,15.60
2018-08-16T22:33:36.131Z,15.13
2018-08-16T22:36:05.291Z,15.97
2018-08-16T22:38:34.330Z,18.50
2018-08-16T22:41:03.430Z,16.83
2018-08-16T22:43:32.458Z,15.87
2018-08-16T22:46:01.561Z,16.10
2018-08-16T22:48:30.622Z,16.57
2018-08-16T22:50:59.683Z,16.77
2018-08-16T22:53:28.696Z,17.33
2018-08-16T22:55:57.728Z,16.87
2018-08-16T22:58:26.847Z,17.37
2018-08-16T23:00:56.005Z,17.80
2018-08-16T23:03:25.069Z,16.80
2018-08-16T23:05:54.082Z,17.70
2018-08-16T23:08:23.134Z,17.77
2018-08-16T23:10:52.185Z,17.47
2018-08-16T23:13:21.262Z,17.33
2018-08-16T23:15:50.398Z,17.47
2018-08-16T23:18:19.490Z,18.57
2018-08-16T23:20:48.564Z,18.07
2018-08-16T23:23:17.582Z,18.83
2018-08-16T23:25:46.617Z,19.20
2018-08-16T23:28:15.697Z,19.37
2018-08-16T23:30:44.732Z,19.37
2018-08-16T23:33:14.044Z,19.10
2018-08-16T23:35:43.110Z,19.53
2018-08-16T23:38:12.168Z,19.27
2018-08-16T23:40:41.256Z,18.67
2018-08-16T23:43:10.348Z,20.40
2018-08-16T23:45:39.454Z,18.17
2018-08-16T23:48:19.592Z,19.57
2018-08-16T23:50:48.924Z,18.67
2018-08-16T23:53:17.946Z,19.67
2018-08-16T23:55:47.042Z,18.70
2018-08-16T23:58:16.379Z,18.57
